Terminal Aerodrome Forecast
Issued by NWS

Home | Current Version | Previous Version | Text Only | Print | Product List | Glossary On
Versions: 1 2 3 4 5 6 7 8 9 10 11 12 13 14 15 16 17 18 19 20 21
462
FTUS42 KTAE 191739
TAFVLD
TAF
KVLD 191739Z 1918/2018 15006KT 5SM BR SCT025 SCT070
     FM192100 15006KT P6SM BKN070
     FM200600 00000KT 2SM BR OVC004
     FM200900 00000KT 1SM BR OVC002
     FM201500 12007KT P6SM SCT007 OVC025=

USA.gov is the U.S. government's official web portal to all federal, state and local government web resources and services.